sensor_id;sensor_type;location;lat;lon;timestamp;P1;durP1;ratioP1;P2;durP2;ratioP2
16892;SDS011;8563;52.242;9.098;2023-05-23T00:00:58;21.17;;;18.67;;
16892;SDS011;8563;52.242;9.098;2023-05-23T00:03:31;20.73;;;18.60;;
16892;SDS011;8563;52.242;9.098;2023-05-23T00:06:05;20.90;;;18.87;;
16892;SDS011;8563;52.242;9.098;2023-05-23T00:08:38;20.73;;;18.80;;
16892;SDS011;8563;52.242;9.098;2023-05-23T00:11:10;21.48;;;19.38;;
16892;SDS011;8563;52.242;9.098;2023-05-23T00:13:43;21.77;;;19.47;;
16892;SDS011;8563;52.242;9.098;2023-05-23T00:16:16;18.47;;;16.63;;
16892;SDS011;8563;52.242;9.098;2023-05-23T00:18:49;20.40;;;18.50;;
16892;SDS011;8563;52.242;9.098;2023-05-23T00:21:22;19.67;;;17.87;;
16892;SDS011;8563;52.242;9.098;2023-05-23T00:23:56;17.38;;;15.57;;
16892;SDS011;8563;52.242;9.098;2023-05-23T00:26:29;20.27;;;18.27;;
16892;SDS011;8563;52.242;9.098;2023-05-23T00:29:01;17.50;;;15.60;;
16892;SDS011;8563;52.242;9.098;2023-05-23T00:31:34;18.97;;;17.07;;
16892;SDS011;8563;52.242;9.098;2023-05-23T00:34:07;18.87;;;16.90;;
16892;SDS011;8563;52.242;9.098;2023-05-23T00:36:40;17.17;;;15.43;;
16892;SDS011;8563;52.242;9.098;2023-05-23T00:39:13;18.60;;;16.97;;
16892;SDS011;8563;52.242;9.098;2023-05-23T00:41:48;19.20;;;17.17;;
16892;SDS011;8563;52.242;9.098;2023-05-23T00:44:22;16.77;;;15.17;;
16892;SDS011;8563;52.242;9.098;2023-05-23T00:46:55;16.13;;;14.47;;
16892;SDS011;8563;52.242;9.098;2023-05-23T00:49:27;16.90;;;15.27;;
16892;SDS011;8563;52.242;9.098;2023-05-23T00:52:01;16.90;;;15.40;;
16892;SDS011;8563;52.242;9.098;2023-05-23T00:54:34;17.43;;;15.73;;
16892;SDS011;8563;52.242;9.098;2023-05-23T00:57:07;16.50;;;15.00;;
16892;SDS011;8563;52.242;9.098;2023-05-23T00:59:40;15.30;;;13.90;;
16892;SDS011;8563;52.242;9.098;2023-05-23T01:02:13;14.83;;;12.60;;
16892;SDS011;8563;52.242;9.098;2023-05-23T01:04:45;14.70;;;13.33;;
16892;SDS011;8563;52.242;9.098;2023-05-23T01:07:20;15.53;;;14.17;;
16892;SDS011;8563;52.242;9.098;2023-05-23T01:09:52;15.83;;;13.27;;
16892;SDS011;8563;52.242;9.098;2023-05-23T01:12:26;13.53;;;12.00;;
16892;SDS011;8563;52.242;9.098;2023-05-23T01:15:03;15.37;;;13.87;;
16892;SDS011;8563;52.242;9.098;2023-05-23T01:17:39;15.30;;;13.80;;
16892;SDS011;8563;52.242;9.098;2023-05-23T01:20:16;15.97;;;14.23;;
16892;SDS011;8563;52.242;9.098;2023-05-23T01:22:59;16.43;;;14.83;;
16892;SDS011;8563;52.242;9.098;2023-05-23T01:25:44;15.57;;;14.07;;
16892;SDS011;8563;52.242;9.098;2023-05-23T01:28:20;15.10;;;13.80;;
16892;SDS011;8563;52.242;9.098;2023-05-23T01:30:55;18.13;;;14.03;;
16892;SDS011;8563;52.242;9.098;2023-05-23T01:33:29;15.30;;;13.37;;
16892;SDS011;8563;52.242;9.098;2023-05-23T01:36:03;16.43;;;14.93;;
16892;SDS011;8563;52.242;9.098;2023-05-23T01:38:36;15.40;;;13.80;;
16892;SDS011;8563;52.242;9.098;2023-05-23T01:41:09;16.23;;;14.57;;
16892;SDS011;8563;52.242;9.098;2023-05-23T01:43:43;17.57;;;15.93;;
16892;SDS011;8563;52.242;9.098;2023-05-23T01:46:16;18.17;;;16.37;;
16892;SDS011;8563;52.242;9.098;2023-05-23T01:48:49;19.23;;;17.33;;
16892;SDS011;8563;52.242;9.098;2023-05-23T01:51:21;17.27;;;15.70;;
16892;SDS011;8563;52.242;9.098;2023-05-23T01:53:56;16.77;;;15.23;;
16892;SDS011;8563;52.242;9.098;2023-05-23T01:56:30;16.90;;;15.23;;
16892;SDS011;8563;52.242;9.098;2023-05-23T01:59:05;17.30;;;15.80;;
16892;SDS011;8563;52.242;9.098;2023-05-23T02:01:39;16.23;;;14.63;;
16892;SDS011;8563;52.242;9.098;2023-05-23T02:04:12;15.13;;;13.73;;
16892;SDS011;8563;52.242;9.098;2023-05-23T02:06:45;16.40;;;14.80;;
16892;SDS011;8563;52.242;9.098;2023-05-23T02:09:17;16.33;;;14.83;;
16892;SDS011;8563;52.242;9.098;2023-05-23T02:11:50;15.10;;;13.70;;
16892;SDS011;8563;52.242;9.098;2023-05-23T02:14:24;14.97;;;13.57;;
16892;SDS011;8563;52.242;9.098;2023-05-23T02:16:57;14.70;;;13.37;;
16892;SDS011;8563;52.242;9.098;2023-05-23T02:19:30;17.27;;;15.27;;
16892;SDS011;8563;52.242;9.098;2023-05-23T02:22:02;13.40;;;12.10;;
16892;SDS011;8563;52.242;9.098;2023-05-23T02:24:34;14.67;;;13.27;;
16892;SDS011;8563;52.242;9.098;2023-05-23T02:27:07;13.13;;;11.57;;
16892;SDS011;8563;52.242;9.098;2023-05-23T02:29:41;13.23;;;12.03;;
16892;SDS011;8563;52.242;9.098;2023-05-23T02:32:13;12.10;;;10.90;;
16892;SDS011;8563;52.242;9.098;2023-05-23T02:34:46;12.33;;;11.13;;
16892;SDS011;8563;52.242;9.098;2023-05-23T02:37:19;12.90;;;11.70;;
16892;SDS011;8563;52.242;9.098;2023-05-23T02:39:52;12.37;;;11.17;;
16892;SDS011;8563;52.242;9.098;2023-05-23T02:42:25;12.37;;;11.27;;
16892;SDS011;8563;52.242;9.098;2023-05-23T02:44:59;12.50;;;11.30;;
16892;SDS011;8563;52.242;9.098;2023-05-23T02:47:32;12.57;;;11.27;;
16892;SDS011;8563;52.242;9.098;2023-05-23T02:50:04;11.40;;;10.47;;
16892;SDS011;8563;52.242;9.098;2023-05-23T02:52:37;11.70;;;10.60;;
16892;SDS011;8563;52.242;9.098;2023-05-23T02:55:11;10.40;;;9.50;;
16892;SDS011;8563;52.242;9.098;2023-05-23T02:57:48;13.10;;;11.17;;
16892;SDS011;8563;52.242;9.098;2023-05-23T03:00:22;12.40;;;11.17;;
16892;SDS011;8563;52.242;9.098;2023-05-23T03:02:58;12.47;;;11.17;;
16892;SDS011;8563;52.242;9.098;2023-05-23T03:05:30;12.57;;;11.30;;
16892;SDS011;8563;52.242;9.098;2023-05-23T03:08:03;13.03;;;11.63;;
16892;SDS011;8563;52.242;9.098;2023-05-23T03:10:36;11.37;;;10.17;;
16892;SDS011;8563;52.242;9.098;2023-05-23T03:13:08;10.43;;;9.23;;
16892;SDS011;8563;52.242;9.098;2023-05-23T03:15:42;9.87;;;8.97;;
16892;SDS011;8563;52.242;9.098;2023-05-23T03:18:15;9.93;;;9.03;;
16892;SDS011;8563;52.242;9.098;2023-05-23T03:20:48;9.10;;;8.30;;
16892;SDS011;8563;52.242;9.098;2023-05-23T03:23:21;10.63;;;9.53;;
16892;SDS011;8563;52.242;9.098;2023-05-23T03:25:53;9.57;;;8.63;;
16892;SDS011;8563;52.242;9.098;2023-05-23T03:28:26;8.93;;;8.10;;
16892;SDS011;8563;52.242;9.098;2023-05-23T03:30:59;11.50;;;8.27;;
16892;SDS011;8563;52.242;9.098;2023-05-23T03:33:32;7.80;;;7.00;;
16892;SDS011;8563;52.242;9.098;2023-05-23T03:36:05;8.20;;;7.50;;
16892;SDS011;8563;52.242;9.098;2023-05-23T03:38:37;8.00;;;7.20;;
16892;SDS011;8563;52.242;9.098;2023-05-23T03:41:10;7.83;;;6.87;;
16892;SDS011;8563;52.242;9.098;2023-05-23T03:43:42;8.00;;;7.27;;
16892;SDS011;8563;52.242;9.098;2023-05-23T03:46:18;7.63;;;6.90;;
16892;SDS011;8563;52.242;9.098;2023-05-23T03:48:50;8.00;;;7.27;;
16892;SDS011;8563;52.242;9.098;2023-05-23T03:51:23;8.20;;;6.73;;
16892;SDS011;8563;52.242;9.098;2023-05-23T03:53:57;7.43;;;6.73;;
16892;SDS011;8563;52.242;9.098;2023-05-23T03:56:30;7.30;;;6.60;;
16892;SDS011;8563;52.242;9.098;2023-05-23T03:59:02;7.23;;;6.53;;
16892;SDS011;8563;52.242;9.098;2023-05-23T04:01:37;8.47;;;7.43;;
16892;SDS011;8563;52.242;9.098;2023-05-23T04:04:10;7.83;;;7.00;;
16892;SDS011;8563;52.242;9.098;2023-05-23T04:06:42;7.87;;;7.07;;
16892;SDS011;8563;52.242;9.098;2023-05-23T04:09:15;10.00;;;7.87;;
16892;SDS011;8563;52.242;9.098;2023-05-23T04:11:50;7.90;;;7.10;;
16892;SDS011;8563;52.242;9.098;2023-05-23T04:14:23;9.27;;;8.07;;
16892;SDS011;8563;52.242;9.098;2023-05-23T04:16:59;8.93;;;8.03;;
16892;SDS011;8563;52.242;9.098;2023-05-23T04:19:32;7.73;;;7.03;;
16892;SDS011;8563;52.242;9.098;2023-05-23T04:22:05;8.17;;;7.37;;
16892;SDS011;8563;52.242;9.098;2023-05-23T04:24:37;8.07;;;6.97;;
16892;SDS011;8563;52.242;9.098;2023-05-23T04:27:10;12.30;;;9.07;;
16892;SDS011;8563;52.242;9.098;2023-05-23T04:29:43;7.77;;;7.07;;
16892;SDS011;8563;52.242;9.098;2023-05-23T04:32:17;8.30;;;7.50;;
16892;SDS011;8563;52.242;9.098;2023-05-23T04:34:52;8.77;;;6.80;;
16892;SDS011;8563;52.242;9.098;2023-05-23T04:37:26;7.30;;;6.60;;
16892;SDS011;8563;52.242;9.098;2023-05-23T04:39:58;8.17;;;7.23;;
16892;SDS011;8563;52.242;9.098;2023-05-23T04:43:01;7.83;;;7.07;;
16892;SDS011;8563;52.242;9.098;2023-05-23T04:45:40;8.57;;;7.67;;
16892;SDS011;8563;52.242;9.098;2023-05-23T04:48:36;9.30;;;7.80;;
16892;SDS011;8563;52.242;9.098;2023-05-23T04:51:08;9.40;;;8.40;;
16892;SDS011;8563;52.242;9.098;2023-05-23T04:53:48;10.13;;;9.13;;
16892;SDS011;8563;52.242;9.098;2023-05-23T04:56:20;9.97;;;8.97;;
16892;SDS011;8563;52.242;9.098;2023-05-23T04:58:58;11.27;;;10.00;;
16892;SDS011;8563;52.242;9.098;2023-05-23T05:01:31;10.07;;;9.07;;
16892;SDS011;8563;52.242;9.098;2023-05-23T05:04:05;10.00;;;9.00;;
16892;SDS011;8563;52.242;9.098;2023-05-23T05:06:39;12.83;;;10.50;;
16892;SDS011;8563;52.242;9.098;2023-05-23T05:09:12;11.47;;;10.37;;
16892;SDS011;8563;52.242;9.098;2023-05-23T05:11:47;16.83;;;11.73;;
16892;SDS011;8563;52.242;9.098;2023-05-23T05:14:19;14.47;;;13.07;;
16892;SDS011;8563;52.242;9.098;2023-05-23T05:16:52;14.37;;;12.97;;
16892;SDS011;8563;52.242;9.098;2023-05-23T05:19:28;14.43;;;13.00;;
16892;SDS011;8563;52.242;9.098;2023-05-23T05:22:01;14.37;;;12.87;;
16892;SDS011;8563;52.242;9.098;2023-05-23T05:24:36;15.33;;;13.40;;
16892;SDS011;8563;52.242;9.098;2023-05-23T05:27:10;13.13;;;11.77;;
16892;SDS011;8563;52.242;9.098;2023-05-23T05:29:42;14.17;;;12.70;;
16892;SDS011;8563;52.242;9.098;2023-05-23T05:32:15;14.83;;;13.33;;
16892;SDS011;8563;52.242;9.098;2023-05-23T05:34:49;14.00;;;12.60;;
16892;SDS011;8563;52.242;9.098;2023-05-23T05:37:22;13.33;;;11.93;;
16892;SDS011;8563;52.242;9.098;2023-05-23T05:39:55;12.73;;;11.47;;
16892;SDS011;8563;52.242;9.098;2023-05-23T05:42:28;13.77;;;12.37;;
16892;SDS011;8563;52.242;9.098;2023-05-23T05:45:01;14.23;;;12.83;;
16892;SDS011;8563;52.242;9.098;2023-05-23T05:47:36;13.20;;;12.00;;
16892;SDS011;8563;52.242;9.098;2023-05-23T05:50:10;11.87;;;10.67;;
16892;SDS011;8563;52.242;9.098;2023-05-23T05:52:44;14.50;;;13.10;;
16892;SDS011;8563;52.242;9.098;2023-05-23T05:55:16;13.57;;;12.03;;
16892;SDS011;8563;52.242;9.098;2023-05-23T05:57:52;13.07;;;11.70;;
16892;SDS011;8563;52.242;9.098;2023-05-23T06:00:26;13.10;;;11.80;;
16892;SDS011;8563;52.242;9.098;2023-05-23T06:03:00;15.17;;;12.77;;
16892;SDS011;8563;52.242;9.098;2023-05-23T06:05:41;14.43;;;12.57;;
16892;SDS011;8563;52.242;9.098;2023-05-23T06:08:15;17.20;;;13.57;;
16892;SDS011;8563;52.242;9.098;2023-05-23T06:10:47;13.73;;;12.23;;
16892;SDS011;8563;52.242;9.098;2023-05-23T06:13:20;13.37;;;11.97;;
16892;SDS011;8563;52.242;9.098;2023-05-23T06:15:56;14.27;;;12.67;;
16892;SDS011;8563;52.242;9.098;2023-05-23T06:18:29;12.33;;;10.80;;
16892;SDS011;8563;52.242;9.098;2023-05-23T06:21:03;13.53;;;11.50;;
16892;SDS011;8563;52.242;9.098;2023-05-23T06:23:38;15.70;;;12.50;;
16892;SDS011;8563;52.242;9.098;2023-05-23T06:26:10;13.30;;;11.93;;
16892;SDS011;8563;52.242;9.098;2023-05-23T06:28:43;13.13;;;11.47;;
16892;SDS011;8563;52.242;9.098;2023-05-23T06:31:15;15.90;;;12.03;;
16892;SDS011;8563;52.242;9.098;2023-05-23T06:33:48;15.60;;;12.80;;
16892;SDS011;8563;52.242;9.098;2023-05-23T06:36:22;13.77;;;12.27;;
16892;SDS011;8563;52.242;9.098;2023-05-23T06:38:55;17.33;;;13.60;;
16892;SDS011;8563;52.242;9.098;2023-05-23T06:41:27;14.90;;;12.10;;
16892;SDS011;8563;52.242;9.098;2023-05-23T06:44:00;13.63;;;11.30;;
16892;SDS011;8563;52.242;9.098;2023-05-23T06:46:34;14.87;;;11.93;;
16892;SDS011;8563;52.242;9.098;2023-05-23T06:49:07;13.03;;;11.57;;
16892;SDS011;8563;52.242;9.098;2023-05-23T06:51:41;14.23;;;11.80;;
16892;SDS011;8563;52.242;9.098;2023-05-23T06:54:13;14.80;;;12.33;;
16892;SDS011;8563;52.242;9.098;2023-05-23T06:56:47;13.10;;;11.03;;
16892;SDS011;8563;52.242;9.098;2023-05-23T06:59:20;12.77;;;10.50;;
16892;SDS011;8563;52.242;9.098;2023-05-23T07:01:52;11.77;;;10.20;;
16892;SDS011;8563;52.242;9.098;2023-05-23T07:04:26;11.53;;;9.47;;
16892;SDS011;8563;52.242;9.098;2023-05-23T07:07:03;9.03;;;8.13;;
16892;SDS011;8563;52.242;9.098;2023-05-23T07:09:36;9.13;;;8.03;;
16892;SDS011;8563;52.242;9.098;2023-05-23T07:12:14;8.67;;;7.67;;
16892;SDS011;8563;52.242;9.098;2023-05-23T07:14:50;9.97;;;8.37;;
16892;SDS011;8563;52.242;9.098;2023-05-23T07:17:24;9.23;;;7.33;;
16892;SDS011;8563;52.242;9.098;2023-05-23T07:20:00;8.80;;;7.90;;
16892;SDS011;8563;52.242;9.098;2023-05-23T07:22:37;7.07;;;6.37;;
16892;SDS011;8563;52.242;9.098;2023-05-23T07:25:10;10.47;;;7.90;;
16892;SDS011;8563;52.242;9.098;2023-05-23T07:27:43;8.93;;;7.43;;
16892;SDS011;8563;52.242;9.098;2023-05-23T07:30:16;11.80;;;9.30;;
16892;SDS011;8563;52.242;9.098;2023-05-23T07:32:49;10.93;;;8.40;;
16892;SDS011;8563;52.242;9.098;2023-05-23T07:35:23;9.73;;;8.73;;
16892;SDS011;8563;52.242;9.098;2023-05-23T07:37:57;10.17;;;8.30;;
16892;SDS011;8563;52.242;9.098;2023-05-23T07:40:30;11.73;;;8.83;;
16892;SDS011;8563;52.242;9.098;2023-05-23T07:43:02;11.33;;;8.63;;
16892;SDS011;8563;52.242;9.098;2023-05-23T07:45:35;14.23;;;9.60;;
16892;SDS011;8563;52.242;9.098;2023-05-23T07:48:07;13.27;;;10.00;;
16892;SDS011;8563;52.242;9.098;2023-05-23T07:50:41;12.33;;;9.60;;
16892;SDS011;8563;52.242;9.098;2023-05-23T07:53:15;15.67;;;10.13;;
16892;SDS011;8563;52.242;9.098;2023-05-23T07:55:48;12.27;;;9.13;;
16892;SDS011;8563;52.242;9.098;2023-05-23T07:58:21;16.23;;;10.27;;
16892;SDS011;8563;52.242;9.098;2023-05-23T08:00:53;15.10;;;10.40;;
16892;SDS011;8563;52.242;9.098;2023-05-23T08:03:45;13.13;;;9.20;;
16892;SDS011;8563;52.242;9.098;2023-05-23T08:06:25;13.07;;;9.93;;
16892;SDS011;8563;52.242;9.098;2023-05-23T08:09:01;10.97;;;8.93;;
16892;SDS011;8563;52.242;9.098;2023-05-23T08:11:36;15.70;;;9.17;;
16892;SDS011;8563;52.242;9.098;2023-05-23T08:14:10;13.53;;;8.43;;
16892;SDS011;8563;52.242;9.098;2023-05-23T08:16:42;11.50;;;7.93;;
16892;SDS011;8563;52.242;9.098;2023-05-23T08:19:20;12.07;;;8.13;;
16892;SDS011;8563;52.242;9.098;2023-05-23T08:21:54;8.37;;;7.00;;
16892;SDS011;8563;52.242;9.098;2023-05-23T08:24:28;8.93;;;6.83;;
16892;SDS011;8563;52.242;9.098;2023-05-23T08:27:00;9.50;;;6.93;;
16892;SDS011;8563;52.242;9.098;2023-05-23T08:29:34;10.10;;;6.90;;
16892;SDS011;8563;52.242;9.098;2023-05-23T08:32:08;8.90;;;6.13;;
16892;SDS011;8563;52.242;9.098;2023-05-23T08:34:40;6.63;;;5.80;;
16892;SDS011;8563;52.242;9.098;2023-05-23T08:37:13;10.20;;;5.80;;
16892;SDS011;8563;52.242;9.098;2023-05-23T08:39:48;6.57;;;4.80;;
16892;SDS011;8563;52.242;9.098;2023-05-23T08:42:41;5.90;;;4.67;;
16892;SDS011;8563;52.242;9.098;2023-05-23T08:45:15;5.70;;;4.17;;
16892;SDS011;8563;52.242;9.098;2023-05-23T08:47:49;6.27;;;3.93;;
16892;SDS011;8563;52.242;9.098;2023-05-23T08:50:23;4.63;;;3.97;;
16892;SDS011;8563;52.242;9.098;2023-05-23T08:52:58;5.67;;;3.30;;
16892;SDS011;8563;52.242;9.098;2023-05-23T08:55:33;4.20;;;3.07;;
16892;SDS011;8563;52.242;9.098;2023-05-23T08:58:06;5.27;;;3.27;;
16892;SDS011;8563;52.242;9.098;2023-05-23T09:00:51;4.40;;;2.97;;
16892;SDS011;8563;52.242;9.098;2023-05-23T09:03:25;3.17;;;2.60;;
16892;SDS011;8563;52.242;9.098;2023-05-23T09:06:15;3.03;;;2.60;;
16892;SDS011;8563;52.242;9.098;2023-05-23T09:08:50;4.63;;;2.57;;
16892;SDS011;8563;52.242;9.098;2023-05-23T09:11:27;3.77;;;2.17;;
16892;SDS011;8563;52.242;9.098;2023-05-23T09:14:00;2.87;;;1.80;;
16892;SDS011;8563;52.242;9.098;2023-05-23T09:16:37;2.30;;;1.80;;
16892;SDS011;8563;52.242;9.098;2023-05-23T09:19:15;2.97;;;1.93;;
16892;SDS011;8563;52.242;9.098;2023-05-23T09:21:54;3.07;;;1.60;;
16892;SDS011;8563;52.242;9.098;2023-05-23T09:24:33;1.53;;;1.43;;
16892;SDS011;8563;52.242;9.098;2023-05-23T09:27:08;2.30;;;1.60;;
16892;SDS011;8563;52.242;9.098;2023-05-23T09:29:41;2.60;;;1.70;;
16892;SDS011;8563;52.242;9.098;2023-05-23T09:32:16;2.10;;;1.53;;
16892;SDS011;8563;52.242;9.098;2023-05-23T09:34:54;3.00;;;1.80;;
16892;SDS011;8563;52.242;9.098;2023-05-23T09:37:31;1.90;;;1.40;;
16892;SDS011;8563;52.242;9.098;2023-05-23T09:40:05;2.30;;;1.40;;
16892;SDS011;8563;52.242;9.098;2023-05-23T09:42:42;3.20;;;1.80;;
16892;SDS011;8563;52.242;9.098;2023-05-23T09:45:15;2.50;;;1.60;;
16892;SDS011;8563;52.242;9.098;2023-05-23T09:47:48;2.40;;;2.20;;
16892;SDS011;8563;52.242;9.098;2023-05-23T09:50:22;3.40;;;2.53;;
16892;SDS011;8563;52.242;9.098;2023-05-23T09:52:55;6.53;;;2.70;;
16892;SDS011;8563;52.242;9.098;2023-05-23T09:55:27;4.17;;;2.90;;
16892;SDS011;8563;52.242;9.098;2023-05-23T09:58:01;5.33;;;3.60;;
16892;SDS011;8563;52.242;9.098;2023-05-23T10:00:35;7.63;;;4.43;;
16892;SDS011;8563;52.242;9.098;2023-05-23T10:03:09;6.53;;;4.10;;
16892;SDS011;8563;52.242;9.098;2023-05-23T10:05:43;6.00;;;4.00;;
16892;SDS011;8563;52.242;9.098;2023-05-23T10:08:17;6.07;;;3.97;;
16892;SDS011;8563;52.242;9.098;2023-05-23T10:13:44;7.07;;;4.23;;
16892;SDS011;8563;52.242;9.098;2023-05-23T10:16:17;10.57;;;5.70;;
16892;SDS011;8563;52.242;9.098;2023-05-23T10:18:51;5.83;;;4.10;;
16892;SDS011;8563;52.242;9.098;2023-05-23T10:21:28;8.63;;;5.03;;
16892;SDS011;8563;52.242;9.098;2023-05-23T10:24:02;8.13;;;5.10;;
16892;SDS011;8563;52.242;9.098;2023-05-23T10:26:35;6.60;;;4.07;;
16892;SDS011;8563;52.242;9.098;2023-05-23T10:29:09;10.80;;;6.50;;
16892;SDS011;8563;52.242;9.098;2023-05-23T10:31:42;7.97;;;6.10;;
16892;SDS011;8563;52.242;9.098;2023-05-23T10:34:16;9.07;;;5.50;;
16892;SDS011;8563;52.242;9.098;2023-05-23T10:36:55;12.80;;;5.17;;
16892;SDS011;8563;52.242;9.098;2023-05-23T10:39:38;9.73;;;5.27;;
16892;SDS011;8563;52.242;9.098;2023-05-23T10:42:14;8.73;;;4.70;;
16892;SDS011;8563;52.242;9.098;2023-05-23T10:44:49;6.43;;;4.20;;
16892;SDS011;8563;52.242;9.098;2023-05-23T10:47:24;5.53;;;3.80;;
16892;SDS011;8563;52.242;9.098;2023-05-23T10:49:58;5.50;;;4.00;;
16892;SDS011;8563;52.242;9.098;2023-05-23T10:52:37;6.60;;;4.20;;
16892;SDS011;8563;52.242;9.098;2023-05-23T10:55:13;5.53;;;4.00;;
16892;SDS011;8563;52.242;9.098;2023-05-23T10:57:46;7.17;;;4.73;;
16892;SDS011;8563;52.242;9.098;2023-05-23T11:00:46;6.37;;;3.83;;
16892;SDS011;8563;52.242;9.098;2023-05-23T11:03:29;6.07;;;4.33;;
16892;SDS011;8563;52.242;9.098;2023-05-23T11:06:03;8.23;;;5.07;;
16892;SDS011;8563;52.242;9.098;2023-05-23T11:08:36;7.37;;;4.57;;
16892;SDS011;8563;52.242;9.098;2023-05-23T11:11:11;11.00;;;4.13;;
16892;SDS011;8563;52.242;9.098;2023-05-23T11:13:53;6.73;;;4.33;;
16892;SDS011;8563;52.242;9.098;2023-05-23T11:16:28;8.67;;;5.00;;
16892;SDS011;8563;52.242;9.098;2023-05-23T11:19:19;8.97;;;4.77;;
16892;SDS011;8563;52.242;9.098;2023-05-23T11:21:56;9.20;;;4.43;;
16892;SDS011;8563;52.242;9.098;2023-05-23T11:27:16;7.77;;;4.10;;
16892;SDS011;8563;52.242;9.098;2023-05-23T11:30:00;8.37;;;3.43;;
16892;SDS011;8563;52.242;9.098;2023-05-23T11:32:35;9.50;;;4.97;;
16892;SDS011;8563;52.242;9.098;2023-05-23T11:35:08;9.77;;;4.83;;
16892;SDS011;8563;52.242;9.098;2023-05-23T11:37:41;9.37;;;4.37;;
16892;SDS011;8563;52.242;9.098;2023-05-23T11:40:24;10.43;;;4.30;;
16892;SDS011;8563;52.242;9.098;2023-05-23T11:42:57;12.38;;;4.60;;
16892;SDS011;8563;52.242;9.098;2023-05-23T11:45:30;10.90;;;4.45;;
16892;SDS011;8563;52.242;9.098;2023-05-23T11:48:05;7.07;;;4.10;;
16892;SDS011;8563;52.242;9.098;2023-05-23T11:50:45;10.70;;;4.32;;
16892;SDS011;8563;52.242;9.098;2023-05-23T11:53:18;7.38;;;3.50;;
16892;SDS011;8563;52.242;9.098;2023-05-23T11:55:51;10.90;;;4.28;;
16892;SDS011;8563;52.242;9.098;2023-05-23T11:58:25;11.25;;;3.97;;
16892;SDS011;8563;52.242;9.098;2023-05-23T12:00:59;11.20;;;4.13;;
16892;SDS011;8563;52.242;9.098;2023-05-23T12:03:33;9.77;;;3.97;;
16892;SDS011;8563;52.242;9.098;2023-05-23T12:06:07;8.43;;;3.67;;
16892;SDS011;8563;52.242;9.098;2023-05-23T12:08:39;8.97;;;3.73;;
16892;SDS011;8563;52.242;9.098;2023-05-23T12:11:12;11.30;;;3.90;;
16892;SDS011;8563;52.242;9.098;2023-05-23T12:13:45;8.90;;;3.47;;
16892;SDS011;8563;52.242;9.098;2023-05-23T12:16:17;12.47;;;3.80;;
16892;SDS011;8563;52.242;9.098;2023-05-23T12:18:51;8.87;;;3.33;;
16892;SDS011;8563;52.242;9.098;2023-05-23T12:21:24;7.80;;;3.63;;
16892;SDS011;8563;52.242;9.098;2023-05-23T12:23:57;9.60;;;3.60;;
16892;SDS011;8563;52.242;9.098;2023-05-23T12:26:29;9.47;;;3.23;;
16892;SDS011;8563;52.242;9.098;2023-05-23T12:29:01;7.87;;;3.23;;
16892;SDS011;8563;52.242;9.098;2023-05-23T12:31:34;9.60;;;3.50;;
16892;SDS011;8563;52.242;9.098;2023-05-23T12:34:08;10.38;;;3.45;;
16892;SDS011;8563;52.242;9.098;2023-05-23T12:36:43;14.70;;;3.75;;
16892;SDS011;8563;52.242;9.098;2023-05-23T12:39:22;8.05;;;3.08;;
16892;SDS011;8563;52.242;9.098;2023-05-23T12:42:05;12.88;;;3.10;;
16892;SDS011;8563;52.242;9.098;2023-05-23T12:44:39;9.48;;;3.78;;
16892;SDS011;8563;52.242;9.098;2023-05-23T12:47:12;11.90;;;3.53;;
16892;SDS011;8563;52.242;9.098;2023-05-23T12:49:46;8.38;;;2.75;;
16892;SDS011;8563;52.242;9.098;2023-05-23T12:52:19;8.75;;;3.53;;
16892;SDS011;8563;52.242;9.098;2023-05-23T12:54:51;10.73;;;3.60;;
16892;SDS011;8563;52.242;9.098;2023-05-23T12:57:24;10.52;;;3.78;;
16892;SDS011;8563;52.242;9.098;2023-05-23T12:59:56;11.52;;;3.47;;
16892;SDS011;8563;52.242;9.098;2023-05-23T13:02:29;7.72;;;3.08;;
16892;SDS011;8563;52.242;9.098;2023-05-23T13:05:03;11.40;;;3.20;;
16892;SDS011;8563;52.242;9.098;2023-05-23T13:07:36;9.95;;;2.97;;
16892;SDS011;8563;52.242;9.098;2023-05-23T13:10:08;9.85;;;3.70;;
16892;SDS011;8563;52.242;9.098;2023-05-23T13:12:41;9.20;;;3.33;;
16892;SDS011;8563;52.242;9.098;2023-05-23T13:15:32;14.23;;;3.80;;
16892;SDS011;8563;52.242;9.098;2023-05-23T13:18:04;11.15;;;3.65;;
16892;SDS011;8563;52.242;9.098;2023-05-23T13:20:38;11.18;;;3.65;;
16892;SDS011;8563;52.242;9.098;2023-05-23T13:23:11;10.65;;;3.67;;
16892;SDS011;8563;52.242;9.098;2023-05-23T13:25:44;14.10;;;3.60;;
16892;SDS011;8563;52.242;9.098;2023-05-23T13:28:16;10.73;;;3.58;;
16892;SDS011;8563;52.242;9.098;2023-05-23T13:30:49;11.82;;;3.60;;
16892;SDS011;8563;52.242;9.098;2023-05-23T13:33:22;7.03;;;3.13;;
16892;SDS011;8563;52.242;9.098;2023-05-23T13:35:56;11.88;;;3.45;;
16892;SDS011;8563;52.242;9.098;2023-05-23T13:38:29;8.90;;;3.38;;
16892;SDS011;8563;52.242;9.098;2023-05-23T13:41:01;12.57;;;4.03;;
16892;SDS011;8563;52.242;9.098;2023-05-23T13:43:33;11.20;;;3.90;;
16892;SDS011;8563;52.242;9.098;2023-05-23T13:46:06;12.07;;;4.45;;
16892;SDS011;8563;52.242;9.098;2023-05-23T13:48:38;8.95;;;3.72;;
16892;SDS011;8563;52.242;9.098;2023-05-23T13:51:12;8.60;;;3.78;;
16892;SDS011;8563;52.242;9.098;2023-05-23T13:53:45;9.75;;;3.88;;
16892;SDS011;8563;52.242;9.098;2023-05-23T13:56:17;7.38;;;3.50;;
16892;SDS011;8563;52.242;9.098;2023-05-23T13:58:49;12.77;;;4.40;;
16892;SDS011;8563;52.242;9.098;2023-05-23T14:01:22;8.82;;;3.35;;
16892;SDS011;8563;52.242;9.098;2023-05-23T14:03:55;12.15;;;3.75;;
16892;SDS011;8563;52.242;9.098;2023-05-23T14:06:28;11.48;;;3.95;;
16892;SDS011;8563;52.242;9.098;2023-05-23T14:09:01;9.73;;;3.92;;
16892;SDS011;8563;52.242;9.098;2023-05-23T14:11:34;12.27;;;3.88;;
16892;SDS011;8563;52.242;9.098;2023-05-23T14:14:07;11.55;;;3.60;;
16892;SDS011;8563;52.242;9.098;2023-05-23T14:16:39;9.80;;;3.38;;
16892;SDS011;8563;52.242;9.098;2023-05-23T14:19:12;8.77;;;3.05;;
16892;SDS011;8563;52.242;9.098;2023-05-23T14:21:46;10.35;;;3.58;;
16892;SDS011;8563;52.242;9.098;2023-05-23T14:24:18;13.48;;;3.63;;
16892;SDS011;8563;52.242;9.098;2023-05-23T14:26:51;7.60;;;2.90;;
16892;SDS011;8563;52.242;9.098;2023-05-23T14:29:24;6.43;;;2.85;;
16892;SDS011;8563;52.242;9.098;2023-05-23T14:31:56;7.10;;;2.97;;
16892;SDS011;8563;52.242;9.098;2023-05-23T14:34:29;7.85;;;3.08;;
16892;SDS011;8563;52.242;9.098;2023-05-23T14:37:03;8.40;;;2.90;;
16892;SDS011;8563;52.242;9.098;2023-05-23T14:39:36;10.65;;;3.30;;
16892;SDS011;8563;52.242;9.098;2023-05-23T14:42:08;10.25;;;3.40;;
16892;SDS011;8563;52.242;9.098;2023-05-23T14:44:41;9.20;;;3.00;;
16892;SDS011;8563;52.242;9.098;2023-05-23T14:47:14;12.10;;;3.28;;
16892;SDS011;8563;52.242;9.098;2023-05-23T14:49:46;8.10;;;2.85;;
16892;SDS011;8563;52.242;9.098;2023-05-23T14:52:20;8.93;;;3.33;;
16892;SDS011;8563;52.242;9.098;2023-05-23T14:54:52;9.98;;;3.60;;
16892;SDS011;8563;52.242;9.098;2023-05-23T14:57:25;9.40;;;3.30;;
16892;SDS011;8563;52.242;9.098;2023-05-23T14:59:57;5.65;;;2.53;;
16892;SDS011;8563;52.242;9.098;2023-05-23T15:02:32;11.45;;;2.80;;
16892;SDS011;8563;52.242;9.098;2023-05-23T15:05:05;8.27;;;3.13;;
16892;SDS011;8563;52.242;9.098;2023-05-23T15:07:40;9.20;;;2.70;;
16892;SDS011;8563;52.242;9.098;2023-05-23T15:10:13;7.38;;;2.75;;
16892;SDS011;8563;52.242;9.098;2023-05-23T15:12:46;8.15;;;2.80;;
16892;SDS011;8563;52.242;9.098;2023-05-23T15:15:19;7.65;;;2.63;;
16892;SDS011;8563;52.242;9.098;2023-05-23T15:17:52;7.80;;;2.90;;
16892;SDS011;8563;52.242;9.098;2023-05-23T15:20:25;9.27;;;3.20;;
16892;SDS011;8563;52.242;9.098;2023-05-23T15:22:59;7.65;;;2.88;;
16892;SDS011;8563;52.242;9.098;2023-05-23T15:25:31;7.03;;;2.78;;
16892;SDS011;8563;52.242;9.098;2023-05-23T15:28:04;10.23;;;2.95;;
16892;SDS011;8563;52.242;9.098;2023-05-23T15:30:36;9.70;;;2.88;;
16892;SDS011;8563;52.242;9.098;2023-05-23T15:33:09;7.55;;;2.97;;
16892;SDS011;8563;52.242;9.098;2023-05-23T15:35:42;8.43;;;2.92;;
16892;SDS011;8563;52.242;9.098;2023-05-23T15:38:16;7.53;;;2.40;;